createdAt,value
2022-10-13T00:01:11.053Z,43.58
2022-10-13T00:03:39.264Z,35.70
2022-10-13T00:06:07.358Z,33.10
2022-10-13T00:08:36.678Z,32.60
2022-10-13T00:11:09.935Z,36.05
2022-10-13T00:13:37.278Z,27.42
2022-10-13T00:16:05.002Z,27.15
2022-10-13T00:18:32.575Z,36.10
2022-10-13T00:20:59.929Z,33.63
2022-10-13T00:23:27.348Z,34.45
2022-10-13T00:25:56.182Z,29.40
2022-10-13T00:28:23.596Z,29.42
2022-10-13T00:30:51.014Z,35.53
2022-10-13T00:33:18.397Z,35.50
2022-10-13T00:35:46.389Z,36.28
2022-10-13T00:38:15.549Z,37.30
2022-10-13T00:40:44.274Z,26.65
2022-10-13T00:43:16.335Z,33.33
2022-10-13T00:45:43.931Z,30.85
2022-10-13T00:48:11.368Z,28.17
2022-10-13T00:50:40.166Z,38.63
2022-10-13T00:53:08.280Z,26.67
2022-10-13T00:55:37.685Z,37.38
2022-10-13T00:58:07.269Z,29.27
2022-10-13T01:00:36.274Z,28.50
2022-10-13T01:03:04.065Z,31.67
2022-10-13T01:05:31.874Z,33.13
2022-10-13T01:08:00.382Z,30.02
2022-10-13T01:10:32.496Z,27.98
2022-10-13T01:13:02.208Z,29.52
2022-10-13T01:15:32.908Z,26.95
2022-10-13T01:18:06.944Z,31.80
2022-10-13T01:20:50.049Z,26.40
2022-10-13T01:23:23.543Z,28.08
2022-10-13T01:25:59.948Z,25.63
2022-10-13T01:28:35.709Z,33.90
2022-10-13T01:31:07.639Z,33.55
2022-10-13T01:33:40.401Z,44.42
2022-10-13T01:36:12.412Z,31.23
2022-10-13T01:38:41.411Z,31.88
2022-10-13T01:41:12.610Z,26.80
2022-10-13T01:43:43.746Z,32.30
2022-10-13T01:46:14.739Z,32.17
2022-10-13T01:48:43.578Z,26.90
2022-10-13T01:51:13.329Z,25.98
2022-10-13T01:53:40.925Z,27.02
2022-10-13T01:56:08.545Z,29.40
2022-10-13T01:58:37.560Z,25.27
2022-10-13T02:01:11.135Z,28.48
2022-10-13T02:03:44.466Z,26.00
2022-10-13T02:06:16.456Z,27.90
2022-10-13T02:08:46.999Z,26.33
2022-10-13T02:11:16.424Z,27.17
2022-10-13T02:13:46.404Z,30.63
2022-10-13T02:16:23.502Z,28.67
2022-10-13T02:18:52.426Z,25.02
2022-10-13T02:21:20.130Z,29.40
2022-10-13T02:23:47.531Z,40.65
2022-10-13T02:26:15.262Z,27.88
2022-10-13T02:28:43.184Z,30.98
2022-10-13T02:33:37.855Z,28.88
2022-10-13T02:36:06.616Z,33.03
2022-10-13T02:38:33.979Z,38.83
2022-10-13T02:41:01.726Z,35.55
2022-10-13T02:43:29.172Z,25.00
2022-10-13T02:45:56.557Z,29.98
2022-10-13T02:48:23.957Z,37.13
2022-10-13T02:50:51.311Z,31.23
2022-10-13T02:53:20.054Z,31.92
2022-10-13T02:55:48.321Z,35.05
2022-10-13T02:58:15.677Z,31.45
2022-10-13T03:00:43.115Z,23.35
2022-10-13T03:03:12.021Z,25.90
2022-10-13T03:05:39.478Z,29.38
2022-10-13T03:08:06.880Z,27.05
2022-10-13T03:10:35.591Z,37.97
2022-10-13T03:13:02.951Z,22.02
2022-10-13T03:15:30.560Z,30.98
2022-10-13T03:17:59.936Z,27.25
2022-10-13T03:20:27.381Z,33.33
2022-10-13T03:22:54.761Z,26.60
2022-10-13T03:25:22.100Z,36.08
2022-10-13T03:27:52.450Z,33.17
2022-10-13T03:30:19.852Z,35.78
2022-10-13T03:32:47.239Z,34.00
2022-10-13T03:35:14.907Z,43.00
2022-10-13T03:37:42.270Z,36.05
2022-10-13T03:40:10.799Z,28.90
2022-10-13T03:42:38.159Z,31.65
2022-10-13T03:45:07.434Z,28.52
2022-10-13T03:47:36.386Z,31.08
2022-10-13T03:50:04.112Z,33.97
2022-10-13T03:52:31.539Z,26.58
2022-10-13T03:54:58.907Z,32.95
2022-10-13T03:57:26.341Z,26.25
2022-10-13T03:59:55.896Z,27.85
2022-10-13T04:02:25.490Z,27.60
2022-10-13T04:04:53.979Z,29.17
2022-10-13T04:07:21.376Z,32.53
2022-10-13T04:09:48.772Z,29.58
2022-10-13T04:12:20.664Z,31.92
2022-10-13T04:14:48.587Z,31.73
2022-10-13T04:17:16.000Z,28.77
2022-10-13T04:19:44.733Z,26.65
2022-10-13T04:22:12.151Z,36.20
2022-10-13T04:24:41.747Z,27.83
2022-10-13T04:27:09.350Z,33.75
2022-10-13T04:29:36.704Z,28.58
2022-10-13T04:32:04.188Z,41.88
2022-10-13T04:34:31.608Z,35.70
2022-10-13T04:37:00.321Z,27.20
2022-10-13T04:39:27.737Z,28.75
2022-10-13T04:41:56.305Z,32.15
2022-10-13T04:44:23.761Z,26.88
2022-10-13T04:46:51.142Z,39.08
2022-10-13T04:49:18.646Z,34.65
2022-10-13T04:51:46.169Z,29.42
2022-10-13T04:54:14.891Z,25.55
2022-10-13T04:56:42.327Z,29.35
2022-10-13T04:59:09.694Z,31.27
2022-10-13T05:01:37.077Z,25.35
2022-10-13T05:04:07.333Z,30.65
2022-10-13T05:06:48.605Z,26.80
2022-10-13T05:09:26.138Z,23.85
2022-10-13T05:11:54.752Z,35.08
2022-10-13T05:14:22.325Z,23.92
2022-10-13T05:16:50.004Z,28.00
2022-10-13T05:19:17.439Z,23.85
2022-10-13T05:21:44.851Z,31.70
2022-10-13T05:24:13.578Z,27.77
2022-10-13T05:26:42.923Z,28.98
2022-10-13T05:29:10.308Z,23.55
2022-10-13T05:31:38.070Z,34.40
2022-10-13T05:34:05.456Z,40.65
2022-10-13T05:36:33.748Z,26.23
2022-10-13T05:39:02.032Z,27.33
2022-10-13T05:41:29.840Z,22.90
2022-10-13T05:43:59.823Z,26.92
2022-10-13T05:46:27.289Z,23.98
2022-10-13T05:48:54.764Z,27.30
2022-10-13T05:51:25.905Z,31.67
2022-10-13T05:54:00.812Z,27.02
2022-10-13T05:56:31.126Z,30.95
2022-10-13T05:59:01.764Z,34.20
2022-10-13T06:01:29.991Z,25.00
2022-10-13T06:03:59.784Z,31.30
2022-10-13T06:06:31.340Z,32.70
2022-10-13T06:08:59.281Z,31.42
2022-10-13T06:11:26.711Z,32.92
2022-10-13T06:13:54.113Z,22.80
2022-10-13T06:16:22.935Z,28.50
2022-10-13T06:18:50.312Z,28.08
2022-10-13T06:21:17.680Z,30.20
2022-10-13T06:23:45.049Z,32.80
2022-10-13T06:26:12.468Z,27.25
2022-10-13T06:28:39.951Z,22.85
2022-10-13T06:31:07.854Z,27.35
2022-10-13T06:33:36.594Z,35.42
2022-10-13T06:36:04.408Z,26.42
2022-10-13T06:38:31.859Z,36.00
2022-10-13T06:41:02.465Z,22.77
2022-10-13T06:43:39.585Z,29.23
2022-10-13T06:46:10.160Z,28.20
2022-10-13T06:48:38.916Z,30.25
2022-10-13T06:51:07.273Z,21.95
2022-10-13T06:53:34.660Z,32.10
2022-10-13T06:56:02.654Z,30.98
2022-10-13T07:00:58.401Z,33.42
2022-10-13T07:03:26.007Z,28.08
2022-10-13T07:05:54.742Z,24.90
2022-10-13T07:08:22.144Z,24.92
2022-10-13T07:10:49.684Z,34.75
2022-10-13T07:13:17.108Z,21.63
2022-10-13T07:15:44.551Z,23.83
2022-10-13T07:18:11.936Z,23.63
2022-10-13T07:20:39.352Z,20.85
2022-10-13T07:23:08.232Z,27.20
2022-10-13T07:25:35.793Z,29.55
2022-10-13T07:28:04.991Z,21.27
2022-10-13T07:30:32.467Z,22.30
2022-10-13T07:33:00.029Z,22.20
2022-10-13T07:35:30.685Z,30.70
2022-10-13T07:37:58.540Z,27.40
2022-10-13T07:40:27.473Z,23.15
2022-10-13T07:42:56.608Z,18.55
2022-10-13T07:45:23.992Z,21.33
2022-10-13T07:47:51.405Z,24.02
2022-10-13T07:50:18.878Z,27.83
2022-10-13T07:52:46.244Z,19.20
2022-10-13T07:55:13.690Z,25.90
2022-10-13T07:57:42.386Z,26.42
2022-10-13T08:00:10.495Z,17.33
2022-10-13T08:02:42.312Z,24.35
2022-10-13T08:05:09.872Z,20.23
2022-10-13T08:07:37.990Z,23.67
2022-10-13T08:10:05.771Z,17.45
2022-10-13T08:12:33.145Z,19.63
2022-10-13T08:15:05.289Z,24.63
2022-10-13T08:17:33.861Z,22.35
2022-10-13T08:20:01.305Z,22.50
2022-10-13T08:22:28.932Z,24.85
2022-10-13T08:24:56.724Z,21.95
2022-10-13T08:27:32.836Z,23.23
2022-10-13T08:32:42.112Z,30.20
2022-10-13T08:35:09.888Z,21.08
2022-10-13T08:37:37.254Z,20.42
2022-10-13T08:40:04.996Z,21.38
2022-10-13T08:42:32.960Z,25.40
2022-10-13T08:45:39.939Z,22.58
2022-10-13T08:47:52.167Z,27.98
2022-10-13T08:50:22.421Z,21.15
2022-10-13T08:52:50.949Z,26.83
2022-10-13T08:55:24.517Z,19.45
2022-10-13T08:57:52.112Z,15.70
2022-10-13T09:00:23.313Z,18.70
2022-10-13T09:02:52.423Z,36.17
2022-10-13T09:05:23.260Z,17.40
2022-10-13T09:10:27.009Z,24.13
2022-10-13T09:12:55.889Z,22.52
2022-10-13T09:15:23.561Z,22.50
2022-10-13T09:18:08.738Z,18.15
2022-10-13T09:20:36.180Z,20.15
2022-10-13T09:25:39.908Z,15.43
2022-10-13T09:28:11.318Z,21.52
2022-10-13T09:30:40.976Z,21.50
2022-10-13T09:33:21.019Z,16.58
2022-10-13T09:35:49.546Z,18.23
2022-10-13T09:38:17.596Z,18.48
2022-10-13T09:40:56.690Z,28.67
2022-10-13T09:43:28.322Z,22.13
2022-10-13T09:45:56.062Z,19.92
2022-10-13T09:48:26.941Z,31.00
2022-10-13T09:50:55.745Z,19.88
2022-10-13T09:53:25.469Z,20.33
2022-10-13T09:56:07.953Z,17.40
2022-10-13T09:58:36.933Z,17.55
2022-10-13T10:01:04.528Z,25.90
2022-10-13T10:03:35.005Z,22.15
2022-10-13T10:06:03.159Z,17.40
2022-10-13T10:08:51.258Z,15.52
2022-10-13T10:11:27.501Z,21.63
2022-10-13T10:13:55.799Z,19.25
2022-10-13T10:16:30.080Z,16.05
2022-10-13T10:19:01.063Z,17.60
2022-10-13T10:21:32.378Z,18.27
2022-10-13T10:24:03.572Z,30.95
2022-10-13T10:26:39.895Z,13.82
2022-10-13T10:29:15.858Z,15.93
2022-10-13T10:31:51.963Z,16.73
2022-10-13T10:34:29.779Z,15.75
2022-10-13T10:37:01.940Z,21.75
2022-10-13T10:39:32.268Z,19.50
2022-10-13T10:42:03.938Z,16.67
2022-10-13T10:44:33.706Z,16.17
2022-10-13T10:47:02.998Z,19.63
2022-10-13T10:49:33.003Z,19.25
2022-10-13T10:52:00.825Z,18.15
2022-10-13T10:56:57.232Z,15.82
2022-10-13T10:59:29.151Z,16.45
2022-10-13T11:02:03.421Z,15.63
2022-10-13T11:04:40.108Z,12.23
2022-10-13T11:07:11.376Z,20.13
2022-10-13T11:10:12.100Z,13.25
2022-10-13T11:13:07.020Z,14.23
2022-10-13T11:15:42.226Z,18.63
2022-10-13T11:18:28.153Z,22.45
2022-10-13T11:21:00.119Z,17.30
2022-10-13T11:23:31.223Z,23.23
2022-10-13T11:26:15.850Z,18.60
2022-10-13T11:28:47.173Z,10.80
2022-10-13T11:31:25.364Z,15.48
2022-10-13T11:33:54.657Z,17.65
2022-10-13T11:36:40.487Z,23.05
2022-10-13T11:39:25.837Z,12.60
2022-10-13T11:41:55.950Z,14.77
2022-10-13T11:47:03.595Z,18.75
2022-10-13T11:49:44.417Z,16.77
2022-10-13T11:52:20.133Z,17.67
2022-10-13T11:54:51.351Z,19.88
2022-10-13T11:57:19.690Z,13.85
2022-10-13T11:59:48.192Z,18.13
2022-10-13T12:02:19.146Z,14.70
2022-10-13T12:04:59.915Z,11.05
2022-10-13T12:07:31.730Z,17.38
2022-10-13T12:10:01.404Z,14.05
2022-10-13T12:12:28.804Z,20.23
2022-10-13T12:14:59.897Z,21.70
2022-10-13T12:17:31.794Z,15.63
2022-10-13T12:20:00.556Z,18.65
2022-10-13T12:22:29.453Z,14.57
2022-10-13T12:27:25.899Z,14.05
2022-10-13T12:29:53.350Z,16.17
2022-10-13T12:32:21.396Z,16.33
2022-10-13T12:34:49.568Z,17.35
2022-10-13T12:37:22.479Z,12.90
2022-10-13T12:39:50.306Z,12.80
2022-10-13T12:42:19.056Z,17.13
2022-10-13T12:44:47.878Z,14.32
2022-10-13T12:47:33.800Z,18.77
2022-10-13T12:50:16.153Z,19.38
2022-10-13T12:52:43.804Z,17.25
2022-10-13T12:55:14.587Z,14.68
2022-10-13T12:57:42.401Z,20.25
2022-10-13T13:00:22.010Z,17.67
2022-10-13T13:02:52.040Z,20.45
2022-10-13T13:05:32.494Z,9.88
2022-10-13T13:08:02.854Z,13.88
2022-10-13T13:10:31.063Z,18.38
2022-10-13T13:13:12.977Z,16.50
2022-10-13T13:15:41.829Z,23.52
2022-10-13T13:18:39.484Z,21.90
2022-10-13T13:21:07.472Z,22.73
2022-10-13T13:23:35.784Z,14.23
2022-10-13T13:26:05.250Z,20.45
2022-10-13T13:28:33.464Z,28.25
2022-10-13T13:31:05.268Z,20.23
2022-10-13T13:33:32.633Z,20.42
2022-10-13T13:36:00.484Z,19.45
2022-10-13T13:38:27.854Z,20.73
2022-10-13T13:40:55.993Z,26.75
2022-10-13T13:43:23.394Z,21.60
2022-10-13T13:45:50.833Z,31.67
2022-10-13T13:48:19.542Z,22.77
2022-10-13T13:50:47.816Z,23.48
2022-10-13T13:53:15.172Z,25.02
2022-10-13T13:55:44.589Z,22.02
2022-10-13T13:58:16.248Z,25.42
2022-10-13T14:00:43.684Z,24.48
2022-10-13T14:03:11.855Z,27.85
2022-10-13T14:05:41.877Z,23.67
2022-10-13T14:08:09.303Z,28.52
2022-10-13T14:10:36.734Z,31.65
2022-10-13T14:13:04.143Z,26.05
2022-10-13T14:15:31.507Z,25.95
2022-10-13T14:17:58.991Z,27.38
2022-10-13T14:20:26.395Z,19.08
2022-10-13T14:22:55.113Z,29.63
2022-10-13T14:25:22.509Z,17.63
2022-10-13T14:27:49.865Z,28.95
2022-10-13T14:30:17.367Z,28.67
2022-10-13T14:32:44.793Z,27.83
2022-10-13T14:35:12.401Z,22.13
2022-10-13T14:37:40.135Z,20.40
2022-10-13T14:42:36.230Z,14.70
2022-10-13T14:45:06.422Z,21.85
2022-10-13T14:47:33.775Z,19.38
2022-10-13T14:50:01.863Z,21.80
2022-10-13T14:52:29.306Z,22.40
2022-10-13T14:54:56.744Z,20.23
2022-10-13T14:57:24.249Z,23.00
2022-10-13T14:59:53.674Z,18.80
2022-10-13T15:02:23.185Z,17.20
2022-10-13T15:04:53.318Z,23.90
2022-10-13T15:07:20.916Z,23.85
2022-10-13T15:10:15.070Z,17.10
2022-10-13T15:12:35.851Z,20.00
2022-10-13T15:15:04.873Z,22.98
2022-10-13T15:17:33.154Z,26.52
2022-10-13T15:20:00.604Z,31.42
2022-10-13T15:22:27.967Z,24.40
2022-10-13T15:24:55.389Z,20.58
2022-10-13T15:27:22.747Z,22.60
2022-10-13T15:29:50.135Z,23.58
2022-10-13T15:32:20.275Z,25.00
2022-10-13T15:34:55.750Z,18.65
2022-10-13T15:37:23.157Z,26.88
2022-10-13T15:39:54.658Z,27.17
2022-10-13T15:42:24.727Z,21.75
2022-10-13T15:47:40.809Z,30.58
2022-10-13T15:50:08.653Z,26.42
2022-10-13T15:55:03.498Z,29.63
2022-10-13T15:57:31.597Z,30.30
2022-10-13T15:59:59.029Z,34.17
2022-10-13T16:02:26.427Z,28.48
2022-10-13T16:04:56.587Z,40.00
2022-10-13T16:07:23.961Z,27.58
2022-10-13T16:09:51.371Z,37.10
2022-10-13T16:12:19.031Z,33.40
2022-10-13T16:14:46.652Z,32.10
2022-10-13T16:17:14.042Z,38.85
2022-10-13T16:19:41.401Z,36.28
2022-10-13T16:22:10.213Z,25.52
2022-10-13T16:24:37.779Z,28.83
2022-10-13T16:27:06.617Z,31.02
2022-10-13T16:32:01.399Z,34.55
2022-10-13T16:34:28.947Z,25.77
2022-10-13T16:36:56.334Z,31.92
2022-10-13T16:39:25.993Z,33.70
2022-10-13T16:41:53.350Z,30.90
2022-10-13T16:44:25.159Z,36.10
2022-10-13T16:46:54.983Z,32.58
2022-10-13T16:49:22.362Z,30.48
2022-10-13T16:51:49.745Z,28.15
2022-10-13T16:54:17.120Z,36.55
2022-10-13T16:56:46.767Z,29.83
2022-10-13T16:59:14.160Z,30.40
2022-10-13T17:01:41.547Z,48.33
2022-10-13T17:04:08.969Z,43.17
2022-10-13T17:06:38.546Z,57.78
2022-10-13T17:09:05.986Z,66.78
2022-10-13T17:11:33.999Z,44.85
2022-10-13T17:14:06.272Z,36.03
2022-10-13T17:16:34.095Z,28.20
2022-10-13T17:19:01.453Z,37.85
2022-10-13T17:21:33.712Z,30.67
2022-10-13T17:24:01.267Z,31.60
2022-10-13T17:26:28.639Z,31.10
2022-10-13T17:28:56.136Z,45.97
2022-10-13T17:31:24.908Z,37.58
2022-10-13T17:33:52.504Z,35.88
2022-10-13T17:36:21.118Z,43.97
2022-10-13T17:38:49.243Z,38.90
2022-10-13T17:41:17.124Z,46.72
2022-10-13T17:43:49.421Z,38.85
2022-10-13T17:49:05.731Z,35.78
2022-10-13T17:51:33.154Z,30.77
2022-10-13T17:54:00.996Z,36.22
2022-10-13T17:56:28.888Z,35.53
2022-10-13T18:03:52.476Z,30.30
2022-10-13T18:06:24.154Z,29.92
2022-10-13T18:08:51.636Z,27.88
2022-10-13T18:11:19.820Z,28.25
2022-10-13T18:13:47.397Z,25.17
2022-10-13T18:16:15.831Z,24.73
2022-10-13T18:18:43.764Z,20.70
2022-10-13T18:23:39.902Z,25.48
2022-10-13T18:26:08.954Z,19.88
2022-10-13T18:28:39.895Z,24.02
2022-10-13T18:31:08.137Z,19.63
2022-10-13T18:33:35.533Z,22.52
2022-10-13T18:36:02.935Z,17.83
2022-10-13T18:38:30.318Z,24.25
2022-10-13T18:41:00.123Z,18.20
2022-10-13T18:43:27.628Z,18.83
2022-10-13T18:45:59.451Z,29.98
2022-10-13T18:48:26.856Z,24.38
2022-10-13T18:50:54.233Z,23.45
2022-10-13T18:53:21.666Z,20.17
2022-10-13T18:55:49.051Z,29.90
2022-10-13T18:58:17.759Z,22.42
2022-10-13T19:00:45.177Z,17.67
2022-10-13T19:03:13.149Z,21.05
2022-10-13T19:08:09.395Z,21.17
2022-10-13T19:10:37.235Z,19.85
2022-10-13T19:13:04.651Z,30.33
2022-10-13T19:15:33.392Z,23.35
2022-10-13T19:18:00.771Z,25.52
2022-10-13T19:20:28.160Z,23.85
2022-10-13T19:22:58.492Z,22.17
2022-10-13T19:25:26.214Z,29.83
2022-10-13T19:27:54.040Z,21.73
2022-10-13T19:30:21.433Z,23.08
2022-10-13T19:32:55.369Z,26.00
2022-10-13T19:35:22.977Z,28.95
2022-10-13T19:37:50.384Z,25.77
2022-10-13T19:40:17.864Z,39.90
2022-10-13T19:42:45.437Z,21.83
2022-10-13T19:45:12.927Z,29.95
2022-10-13T19:47:40.334Z,27.42
2022-10-13T19:50:09.392Z,28.17
2022-10-13T19:52:36.811Z,28.00
2022-10-13T19:55:04.331Z,27.23
2022-10-13T19:57:31.746Z,27.50
2022-10-13T19:59:59.092Z,27.35
2022-10-13T20:02:26.583Z,30.08
2022-10-13T20:04:53.984Z,37.35
2022-10-13T20:07:22.935Z,33.17
2022-10-13T20:09:50.582Z,36.38
2022-10-13T20:12:17.956Z,37.03
2022-10-13T20:14:47.023Z,39.15
2022-10-13T20:17:14.408Z,32.40
2022-10-13T20:19:43.215Z,43.13
2022-10-13T20:22:10.566Z,39.63
2022-10-13T20:24:39.268Z,48.78
2022-10-13T20:27:06.753Z,35.22
2022-10-13T20:29:35.485Z,55.17
2022-10-13T20:32:02.856Z,40.08
2022-10-13T20:34:30.606Z,46.58
2022-10-13T20:36:57.967Z,39.58
2022-10-13T20:39:28.883Z,39.67
2022-10-13T20:41:57.596Z,50.45
2022-10-13T20:44:25.016Z,41.72
2022-10-13T20:46:52.492Z,52.20
2022-10-13T20:49:22.257Z,43.80
2022-10-13T20:51:49.627Z,45.65
2022-10-13T20:54:17.033Z,52.13
2022-10-13T20:56:44.434Z,67.25
2022-10-13T20:59:14.402Z,48.90
2022-10-13T21:01:43.042Z,57.10
2022-10-13T21:04:11.121Z,48.38
2022-10-13T21:06:38.906Z,54.55
2022-10-13T21:09:06.707Z,56.22
2022-10-13T21:11:34.431Z,56.55
2022-10-13T21:14:06.071Z,50.60
2022-10-13T21:16:35.375Z,60.25
2022-10-13T21:19:06.526Z,55.72
2022-10-13T21:21:34.323Z,49.85
2022-10-13T21:24:02.554Z,56.58
2022-10-13T21:26:30.696Z,58.42
2022-10-13T21:28:58.585Z,51.75
2022-10-13T21:33:55.021Z,52.15
2022-10-13T21:36:23.628Z,55.75
2022-10-13T21:38:51.897Z,57.03
2022-10-13T21:41:19.337Z,51.08
2022-10-13T21:43:46.696Z,61.38
2022-10-13T21:46:15.183Z,58.42
2022-10-13T21:48:45.738Z,62.75
2022-10-13T21:51:16.213Z,53.58
2022-10-13T21:53:43.683Z,53.53
2022-10-13T21:56:12.248Z,50.42
2022-10-13T21:58:39.681Z,48.10
2022-10-13T22:01:07.738Z,62.17
2022-10-13T22:03:35.511Z,48.33
2022-10-13T22:06:06.594Z,50.03
2022-10-13T22:08:38.498Z,48.60
2022-10-13T22:11:15.209Z,46.65
2022-10-13T22:13:42.568Z,39.72
2022-10-13T22:16:11.953Z,39.60
2022-10-13T22:18:42.512Z,41.92
2022-10-13T22:21:11.709Z,38.42
2022-10-13T22:23:40.449Z,35.15
2022-10-13T22:26:08.676Z,39.90
2022-10-13T22:28:37.447Z,32.55
2022-10-13T22:31:06.052Z,44.60
2022-10-13T22:33:34.632Z,35.28
2022-10-13T22:36:06.992Z,34.90
2022-10-13T22:38:34.451Z,40.65
2022-10-13T22:41:06.399Z,39.75
2022-10-13T22:43:33.829Z,43.40
2022-10-13T22:46:11.608Z,27.65
2022-10-13T22:48:40.988Z,31.65
2022-10-13T22:51:15.056Z,33.45
2022-10-13T22:53:42.481Z,36.58
2022-10-13T22:56:12.672Z,38.58
2022-10-13T22:58:40.043Z,32.20
2022-10-13T23:01:08.486Z,34.38
2022-10-13T23:03:35.889Z,42.53
2022-10-13T23:06:03.763Z,36.70
2022-10-13T23:08:31.496Z,35.17
2022-10-13T23:10:59.101Z,37.05
2022-10-13T23:13:27.835Z,42.83
2022-10-13T23:16:01.330Z,37.03
2022-10-13T23:18:31.326Z,43.78
2022-10-13T23:20:58.755Z,50.40
2022-10-13T23:23:26.848Z,49.88
2022-10-13T23:25:54.187Z,40.85
2022-10-13T23:28:21.628Z,37.85
2022-10-13T23:30:50.352Z,38.55
2022-10-13T23:33:17.853Z,37.65
2022-10-13T23:35:45.842Z,42.00
2022-10-13T23:38:13.213Z,34.22
2022-10-13T23:40:40.772Z,38.42
2022-10-13T23:43:08.213Z,44.15
2022-10-13T23:48:05.403Z,35.38
2022-10-13T23:50:33.531Z,39.13
2022-10-13T23:53:01.379Z,48.85
2022-10-13T23:55:29.055Z,58.22
2022-10-13T23:57:56.430Z,39.45
